createdAt,value
2022-12-25T00:02:02.230Z,17.67
2022-12-25T00:05:05.264Z,17.65
2022-12-25T00:08:10.157Z,17.67
2022-12-25T00:11:18.199Z,17.63
2022-12-25T00:14:20.829Z,17.64
2022-12-25T00:17:22.818Z,17.68
2022-12-25T00:20:25.361Z,17.71
2022-12-25T00:23:28.442Z,17.75
2022-12-25T00:26:30.948Z,17.75
2022-12-25T00:29:34.300Z,17.74
2022-12-25T00:32:37.886Z,17.75
2022-12-25T00:35:40.059Z,17.71
2022-12-25T00:38:43.174Z,17.73
2022-12-25T00:42:04.461Z,17.70
2022-12-25T00:45:07.425Z,17.61
2022-12-25T00:48:10.408Z,17.67
2022-12-25T00:51:12.901Z,17.68
2022-12-25T00:54:15.991Z,17.71
2022-12-25T00:57:18.595Z,17.71
2022-12-25T01:00:20.970Z,17.64
2022-12-25T01:03:24.417Z,17.67
2022-12-25T01:06:27.887Z,17.61
2022-12-25T01:09:50.409Z,17.63
2022-12-25T01:12:53.206Z,17.65
2022-12-25T01:15:55.949Z,17.68
2022-12-25T01:18:57.910Z,17.58
2022-12-25T01:22:01.303Z,17.57
2022-12-25T01:25:05.168Z,17.58
2022-12-25T01:28:08.316Z,17.63
2022-12-25T01:31:13.692Z,17.64
2022-12-25T01:34:16.134Z,17.67
2022-12-25T01:37:19.946Z,17.67
2022-12-25T01:40:22.483Z,17.67
2022-12-25T01:43:30.709Z,17.67
2022-12-25T01:46:34.452Z,17.61
2022-12-25T01:49:39.149Z,17.63
2022-12-25T01:52:42.577Z,17.58
2022-12-25T01:55:46.986Z,17.58
2022-12-25T01:58:50.450Z,17.55
2022-12-25T02:01:52.562Z,17.60
2022-12-25T02:05:10.345Z,17.61
2022-12-25T02:08:15.681Z,17.60
2022-12-25T02:11:37.181Z,17.64
2022-12-25T02:14:39.538Z,17.64
2022-12-25T02:18:02.637Z,17.64
2022-12-25T02:21:15.692Z,17.65
2022-12-25T02:24:43.949Z,17.65
2022-12-25T02:28:11.715Z,17.58
2022-12-25T02:31:27.825Z,17.60
2022-12-25T02:34:42.515Z,17.61
2022-12-25T02:37:57.163Z,17.60
2022-12-25T02:41:07.854Z,17.58
2022-12-25T02:44:37.287Z,17.60
2022-12-25T02:47:59.824Z,17.58
2022-12-25T02:51:26.395Z,17.61
2022-12-25T02:54:55.932Z,17.53
2022-12-25T02:58:21.271Z,17.58
2022-12-25T03:01:47.502Z,17.61
2022-12-25T03:05:10.033Z,17.61
2022-12-25T03:08:16.837Z,17.61
2022-12-25T03:11:32.138Z,17.63
2022-12-25T03:14:53.546Z,17.63
2022-12-25T03:17:59.260Z,17.63
2022-12-25T03:21:20.884Z,17.64
2022-12-25T03:24:41.923Z,17.61
2022-12-25T03:27:46.890Z,17.58
2022-12-25T03:31:28.252Z,17.58
2022-12-25T03:35:03.207Z,17.61
2022-12-25T03:38:51.772Z,17.58
2022-12-25T03:42:19.336Z,17.60
2022-12-25T03:45:49.259Z,17.61
2022-12-25T03:49:17.726Z,17.68
2022-12-25T03:52:40.617Z,17.73
2022-12-25T03:56:02.844Z,17.71
2022-12-25T03:59:24.476Z,17.75
2022-12-25T04:02:45.832Z,17.77
2022-12-25T04:06:07.019Z,17.79
2022-12-25T04:09:28.025Z,17.82
2022-12-25T04:12:48.967Z,17.81
2022-12-25T04:16:34.904Z,17.82
2022-12-25T04:19:56.475Z,17.78
2022-12-25T04:23:17.305Z,17.75
2022-12-25T04:26:38.644Z,17.73
2022-12-25T04:29:59.780Z,17.74
2022-12-25T04:33:21.683Z,17.73
2022-12-25T04:36:23.805Z,17.71
2022-12-25T04:39:26.313Z,17.65
2022-12-25T04:42:28.443Z,17.60
2022-12-25T04:45:31.313Z,17.51
2022-12-25T04:48:36.629Z,17.50
2022-12-25T04:51:40.504Z,17.55
2022-12-25T04:54:42.900Z,17.55
2022-12-25T04:57:45.857Z,17.61
2022-12-25T05:00:47.992Z,17.61
2022-12-25T05:03:50.514Z,17.68
2022-12-25T05:06:52.635Z,17.68
2022-12-25T05:09:55.391Z,17.71
2022-12-25T05:12:57.314Z,17.74
2022-12-25T05:15:59.819Z,17.74
2022-12-25T05:19:03.031Z,17.74
2022-12-25T05:22:05.404Z,17.73
2022-12-25T05:25:09.894Z,17.70
2022-12-25T05:28:12.588Z,17.73
2022-12-25T05:31:14.972Z,17.74
2022-12-25T05:34:18.281Z,17.75
2022-12-25T05:37:21.195Z,17.71
2022-12-25T05:40:24.317Z,17.65
2022-12-25T05:43:27.917Z,17.65
2022-12-25T05:46:30.419Z,17.68
2022-12-25T05:49:32.419Z,17.63
2022-12-25T05:52:36.498Z,17.61
2022-12-25T05:55:41.497Z,17.63
2022-12-25T05:58:43.923Z,17.64
2022-12-25T06:01:47.549Z,17.63
2022-12-25T06:04:50.115Z,17.65
2022-12-25T06:07:52.354Z,17.65
2022-12-25T06:10:54.771Z,17.71
2022-12-25T06:13:56.912Z,17.65
2022-12-25T06:17:01.256Z,17.64
2022-12-25T06:20:04.088Z,17.50
2022-12-25T06:23:06.760Z,17.54
2022-12-25T06:26:12.200Z,17.61
2022-12-25T06:29:15.263Z,17.67
2022-12-25T06:32:17.561Z,17.64
2022-12-25T06:35:20.152Z,17.63
2022-12-25T06:38:22.259Z,17.65
2022-12-25T06:41:27.134Z,17.63
2022-12-25T06:44:29.486Z,17.63
2022-12-25T06:47:31.886Z,17.65
2022-12-25T06:50:34.207Z,17.55
2022-12-25T06:53:40.287Z,17.55
2022-12-25T06:56:42.879Z,17.65
2022-12-25T06:59:49.797Z,17.70
2022-12-25T07:02:55.334Z,17.70
2022-12-25T07:06:00.032Z,17.68
2022-12-25T07:09:02.093Z,17.74
2022-12-25T07:12:05.894Z,17.77
2022-12-25T07:15:08.823Z,17.73
2022-12-25T07:18:11.390Z,17.75
2022-12-25T07:21:19.341Z,17.77
2022-12-25T07:24:23.509Z,17.71
2022-12-25T07:27:25.566Z,17.68
2022-12-25T07:30:29.102Z,17.67
2022-12-25T07:33:32.067Z,17.67
2022-12-25T07:36:34.568Z,17.67
2022-12-25T07:39:36.735Z,17.68
2022-12-25T07:42:39.688Z,17.67
2022-12-25T07:45:42.139Z,17.58
2022-12-25T07:48:44.686Z,17.55
2022-12-25T07:51:47.023Z,17.67
2022-12-25T07:54:49.940Z,17.70
2022-12-25T07:57:53.302Z,17.77
2022-12-25T08:00:56.500Z,17.74
2022-12-25T08:04:02.105Z,17.79
2022-12-25T08:07:04.921Z,17.81
2022-12-25T08:10:07.855Z,17.86
2022-12-25T08:13:14.470Z,17.85
2022-12-25T08:16:17.283Z,17.82
2022-12-25T08:19:19.977Z,17.79
2022-12-25T08:22:22.162Z,17.79
2022-12-25T08:25:24.839Z,17.78
2022-12-25T08:28:27.020Z,17.81
2022-12-25T08:31:30.968Z,17.78
2022-12-25T08:34:33.066Z,17.73
2022-12-25T08:37:35.660Z,17.74
2022-12-25T08:40:41.148Z,17.78
2022-12-25T08:43:44.226Z,17.86
2022-12-25T08:46:48.113Z,17.86
2022-12-25T08:49:50.670Z,17.91
2022-12-25T08:52:52.748Z,17.94
2022-12-25T08:56:01.115Z,17.92
2022-12-25T08:59:03.237Z,17.96
2022-12-25T09:02:05.979Z,17.94
2022-12-25T09:05:08.997Z,17.95
2022-12-25T09:08:11.536Z,17.92
2022-12-25T09:11:15.851Z,17.98
2022-12-25T09:14:18.322Z,17.99
2022-12-25T09:17:20.460Z,18.01
2022-12-25T09:20:23.090Z,18.02
2022-12-25T09:23:25.335Z,18.01
2022-12-25T09:26:27.769Z,18.01
2022-12-25T09:29:29.832Z,18.02
2022-12-25T09:32:33.497Z,18.02
2022-12-25T09:35:35.695Z,18.05
2022-12-25T09:38:38.288Z,18.05
2022-12-25T09:41:46.213Z,18.05
2022-12-25T09:44:59.304Z,18.04
2022-12-25T09:48:04.184Z,18.06
2022-12-25T09:51:11.736Z,18.06
2022-12-25T09:54:22.747Z,18.06
2022-12-25T09:57:26.429Z,18.04
2022-12-25T10:00:40.079Z,18.05
2022-12-25T10:03:45.262Z,18.08
2022-12-25T10:07:24.883Z,18.08
2022-12-25T10:10:37.150Z,18.08
2022-12-25T10:14:06.172Z,18.10
2022-12-25T10:17:25.336Z,18.13
2022-12-25T10:20:39.547Z,18.13
2022-12-25T10:23:48.030Z,18.12
2022-12-25T10:26:54.467Z,18.12
2022-12-25T10:29:58.786Z,18.15
2022-12-25T10:33:01.273Z,18.15
2022-12-25T10:36:04.732Z,18.13
2022-12-25T10:39:07.614Z,18.19
2022-12-25T10:42:40.091Z,18.16
2022-12-25T10:45:49.531Z,18.18
2022-12-25T10:48:56.261Z,18.18
2022-12-25T10:51:58.611Z,18.19
2022-12-25T10:55:11.775Z,18.22
2022-12-25T10:58:21.116Z,18.21
2022-12-25T11:01:28.601Z,18.18
2022-12-25T11:04:35.674Z,18.18
2022-12-25T11:07:51.421Z,18.16
2022-12-25T11:11:08.039Z,18.15
2022-12-25T11:14:18.067Z,18.18
2022-12-25T11:17:24.123Z,18.10
2022-12-25T11:20:27.342Z,18.06
2022-12-25T11:23:31.971Z,18.05
2022-12-25T11:26:50.230Z,18.09
2022-12-25T11:29:59.887Z,18.13
2022-12-25T11:33:11.752Z,18.13
2022-12-25T11:36:32.271Z,18.22
2022-12-25T11:39:38.466Z,18.35
2022-12-25T11:42:45.930Z,18.35
2022-12-25T11:46:07.365Z,18.35
2022-12-25T11:49:16.425Z,18.43
2022-12-25T11:52:22.347Z,18.39
2022-12-25T11:55:49.792Z,18.49
2022-12-25T11:59:00.865Z,18.60
2022-12-25T12:02:26.019Z,18.71
2022-12-25T12:05:43.534Z,18.76
2022-12-25T12:08:48.639Z,18.77
2022-12-25T12:12:06.632Z,18.84
2022-12-25T12:15:30.285Z,18.91
2022-12-25T12:18:35.422Z,18.91
2022-12-25T12:21:40.064Z,18.90
2022-12-25T12:24:44.678Z,18.90
2022-12-25T12:28:02.887Z,19.01
2022-12-25T12:31:08.513Z,19.08
2022-12-25T12:34:33.499Z,19.10
2022-12-25T12:37:38.854Z,19.10
2022-12-25T12:40:45.087Z,19.15
2022-12-25T12:43:57.341Z,19.06
2022-12-25T12:46:59.888Z,19.04
2022-12-25T12:50:03.051Z,19.04
2022-12-25T12:53:24.735Z,19.04
2022-12-25T12:56:27.378Z,19.06
2022-12-25T12:59:40.935Z,19.04
2022-12-25T13:03:26.221Z,19.01
2022-12-25T13:06:43.015Z,19.00
2022-12-25T13:09:57.902Z,19.01
2022-12-25T13:13:05.169Z,19.01
2022-12-25T13:16:16.883Z,19.06
2022-12-25T13:19:24.836Z,19.06
2022-12-25T13:22:32.856Z,19.01
2022-12-25T13:25:34.995Z,19.03
2022-12-25T13:28:39.724Z,19.04
2022-12-25T13:31:42.326Z,18.99
2022-12-25T13:34:45.782Z,18.97
2022-12-25T13:37:48.537Z,18.93
2022-12-25T13:41:15.549Z,18.89
2022-12-25T13:44:25.708Z,18.90
2022-12-25T13:47:37.475Z,18.89
2022-12-25T13:50:46.892Z,18.90
2022-12-25T13:53:49.737Z,18.91
2022-12-25T13:56:56.341Z,18.91
2022-12-25T14:00:00.010Z,18.91
2022-12-25T14:03:04.404Z,18.89
2022-12-25T14:06:18.365Z,18.91
2022-12-25T14:09:21.127Z,18.94
2022-12-25T14:12:25.146Z,18.90
2022-12-25T14:15:30.512Z,18.97
2022-12-25T14:18:37.151Z,19.08
2022-12-25T14:21:49.415Z,19.17
2022-12-25T14:24:52.077Z,19.20
2022-12-25T14:27:55.491Z,19.24
2022-12-25T14:31:02.334Z,19.24
2022-12-25T14:34:07.892Z,19.28
2022-12-25T14:37:19.496Z,19.32
2022-12-25T14:40:26.478Z,19.32
2022-12-25T14:43:30.370Z,19.31
2022-12-25T14:46:34.040Z,19.35
2022-12-25T14:49:37.402Z,19.36
2022-12-25T14:52:43.487Z,19.36
2022-12-25T14:55:54.053Z,19.44
2022-12-25T14:58:58.507Z,19.48
2022-12-25T15:02:01.385Z,19.48
2022-12-25T15:05:04.282Z,19.52
2022-12-25T15:08:13.014Z,19.55
2022-12-25T15:11:15.189Z,19.55
2022-12-25T15:14:19.383Z,19.57
2022-12-25T15:17:27.773Z,19.58
2022-12-25T15:20:35.496Z,19.61
2022-12-25T15:23:37.468Z,19.58
2022-12-25T15:26:41.845Z,19.61
2022-12-25T15:30:09.016Z,19.63
2022-12-25T15:33:14.981Z,19.61
2022-12-25T15:36:18.932Z,19.61
2022-12-25T15:39:21.549Z,19.61
2022-12-25T15:42:25.373Z,19.62
2022-12-25T15:45:30.706Z,19.59
2022-12-25T15:48:33.088Z,19.66
2022-12-25T15:51:35.779Z,19.71
2022-12-25T15:54:38.059Z,19.68
2022-12-25T15:57:42.638Z,19.62
2022-12-25T16:00:44.726Z,19.59
2022-12-25T16:03:48.080Z,19.55
2022-12-25T16:06:50.544Z,19.55
2022-12-25T16:09:53.150Z,19.54
2022-12-25T16:12:55.520Z,19.51
2022-12-25T16:15:58.180Z,19.50
2022-12-25T16:19:01.812Z,19.45
2022-12-25T16:22:12.344Z,19.50
2022-12-25T16:25:17.622Z,19.55
2022-12-25T16:28:21.248Z,19.58
2022-12-25T16:31:23.397Z,19.62
2022-12-25T16:34:27.638Z,19.65
2022-12-25T16:37:30.673Z,19.69
2022-12-25T16:40:33.836Z,19.69
2022-12-25T16:43:35.858Z,19.72
2022-12-25T16:46:40.115Z,19.78
2022-12-25T16:49:42.672Z,19.76
2022-12-25T16:52:46.204Z,19.78
2022-12-25T16:55:49.706Z,19.82
2022-12-25T16:58:52.353Z,19.87
2022-12-25T17:01:54.666Z,19.92
2022-12-25T17:04:58.066Z,19.93
2022-12-25T17:08:00.167Z,19.92
2022-12-25T17:11:05.190Z,19.90
2022-12-25T17:14:07.437Z,19.89
2022-12-25T17:17:10.200Z,19.93
2022-12-25T17:20:12.791Z,19.96
2022-12-25T17:23:15.253Z,19.97
2022-12-25T17:26:18.838Z,19.96
2022-12-25T17:29:22.728Z,19.97
2022-12-25T17:32:25.425Z,20.00
2022-12-25T17:35:27.873Z,19.99
2022-12-25T17:38:32.454Z,20.02
2022-12-25T17:41:35.088Z,19.86
2022-12-25T17:44:37.250Z,19.79
2022-12-25T17:47:39.911Z,19.66
2022-12-25T17:50:42.023Z,19.63
2022-12-25T17:53:47.261Z,19.57
2022-12-25T17:56:58.380Z,19.15
2022-12-25T18:00:00.982Z,19.27
2022-12-25T18:03:09.057Z,19.50
2022-12-25T18:06:18.068Z,19.61
2022-12-25T18:09:20.104Z,19.58
2022-12-25T18:12:22.876Z,19.55
2022-12-25T18:15:25.214Z,19.52
2022-12-25T18:18:28.085Z,19.52
2022-12-25T18:21:30.333Z,19.50
2022-12-25T18:24:32.954Z,19.45
2022-12-25T18:27:34.888Z,19.45
2022-12-25T18:30:42.506Z,19.44
2022-12-25T18:33:45.993Z,19.42
2022-12-25T18:36:51.024Z,19.38
2022-12-25T18:39:53.362Z,19.38
2022-12-25T18:43:02.902Z,19.36
2022-12-25T18:46:06.998Z,19.35
2022-12-25T18:49:11.477Z,19.42
2022-12-25T18:52:49.713Z,19.39
2022-12-25T18:55:36.132Z,19.39
2022-12-25T18:58:40.391Z,19.34
2022-12-25T19:01:42.923Z,19.30
2022-12-25T19:04:47.726Z,19.27
2022-12-25T19:07:51.159Z,19.25
2022-12-25T19:10:54.566Z,19.24
2022-12-25T19:13:57.099Z,19.21
2022-12-25T19:17:00.195Z,19.22
2022-12-25T19:20:05.713Z,19.22
2022-12-25T19:23:09.291Z,19.22
2022-12-25T19:26:13.619Z,19.22
2022-12-25T19:29:16.390Z,19.17
2022-12-25T19:32:19.360Z,19.12
2022-12-25T19:35:21.971Z,19.17
2022-12-25T19:38:25.689Z,19.15
2022-12-25T19:41:28.347Z,19.15
2022-12-25T19:44:30.915Z,19.15
2022-12-25T19:47:33.440Z,19.14
2022-12-25T19:50:35.877Z,19.12
2022-12-25T19:53:38.285Z,19.10
2022-12-25T19:56:41.829Z,19.10
2022-12-25T19:59:44.572Z,19.10
2022-12-25T20:02:48.312Z,19.10
2022-12-25T20:05:52.526Z,19.08
2022-12-25T20:08:58.748Z,19.07
2022-12-25T20:12:01.161Z,19.07
2022-12-25T20:15:03.810Z,19.07
2022-12-25T20:18:07.117Z,19.03
2022-12-25T20:21:17.190Z,19.04
2022-12-25T20:24:19.386Z,19.06
2022-12-25T20:27:22.324Z,19.06
2022-12-25T20:30:25.229Z,19.04
2022-12-25T20:33:28.577Z,19.01
2022-12-25T20:36:36.430Z,19.04
2022-12-25T20:39:41.076Z,19.00
2022-12-25T20:42:43.754Z,19.00
2022-12-25T20:45:51.896Z,18.96
2022-12-25T20:48:54.260Z,18.94
2022-12-25T20:52:03.059Z,18.93
2022-12-25T20:55:08.249Z,18.90
2022-12-25T20:58:12.116Z,18.89
2022-12-25T21:01:17.760Z,18.86
2022-12-25T21:04:20.645Z,18.83
2022-12-25T21:07:22.868Z,18.83
2022-12-25T21:10:25.476Z,18.77
2022-12-25T21:13:30.875Z,18.86
2022-12-25T21:16:33.394Z,18.89
2022-12-25T21:19:35.597Z,18.87
2022-12-25T21:22:38.730Z,18.90
2022-12-25T21:25:41.066Z,18.90
2022-12-25T21:28:43.710Z,18.89
2022-12-25T21:32:04.518Z,18.86
2022-12-25T21:35:07.809Z,18.87
2022-12-25T21:38:10.868Z,18.93
2022-12-25T21:41:14.973Z,18.91
2022-12-25T21:44:18.010Z,18.86
2022-12-25T21:47:20.607Z,18.87
2022-12-25T21:50:42.095Z,18.80
2022-12-25T21:53:45.240Z,18.83
2022-12-25T21:56:49.461Z,18.81
2022-12-25T21:59:52.605Z,18.86
2022-12-25T22:02:55.762Z,18.86
2022-12-25T22:06:21.643Z,18.87
2022-12-25T22:09:25.251Z,18.91
2022-12-25T22:12:46.847Z,18.89
2022-12-25T22:16:08.509Z,19.03
2022-12-25T22:19:30.408Z,19.15
2022-12-25T22:22:33.681Z,19.21
2022-12-25T22:25:36.405Z,19.28
2022-12-25T22:28:38.610Z,19.31
2022-12-25T22:31:46.723Z,19.27
2022-12-25T22:34:51.615Z,19.17
2022-12-25T22:37:55.726Z,19.10
2022-12-25T22:40:59.352Z,19.06
2022-12-25T22:44:17.175Z,19.07
2022-12-25T22:47:20.250Z,19.11
2022-12-25T22:50:23.680Z,19.20
2022-12-25T22:53:25.774Z,19.27
2022-12-25T22:56:28.233Z,19.32
2022-12-25T22:59:33.027Z,19.30
2022-12-25T23:02:35.677Z,19.35
2022-12-25T23:05:38.268Z,19.39
2022-12-25T23:08:40.799Z,19.45
2022-12-25T23:11:43.358Z,19.47
2022-12-25T23:14:47.185Z,19.44
2022-12-25T23:18:08.332Z,19.51
2022-12-25T23:21:33.323Z,19.54
2022-12-25T23:24:53.905Z,19.55
2022-12-25T23:27:56.792Z,19.58
2022-12-25T23:30:58.753Z,19.59
2022-12-25T23:34:02.216Z,19.66
2022-12-25T23:37:04.726Z,19.65
2022-12-25T23:40:07.908Z,19.68
2022-12-25T23:43:10.007Z,19.71
2022-12-25T23:46:12.708Z,19.75
2022-12-25T23:49:14.813Z,19.75
2022-12-25T23:52:17.306Z,19.76
2022-12-25T23:55:20.591Z,19.82
2022-12-25T23:58:23.494Z,19.87
